Time;durP1;ratioP1;P1;durP2;ratioP2;P2;SDS_P1;SDS_P2;PMS_P1;PMS_P2;Temp;Humidity;BMP_temperature;BMP_pressure;BME280_temperature;BME280_humidity;BME280_pressure;Samples;Min_cycle;Max_cycle;Signal;HPM_P1;HPM_P2
2021/12/07 00:01:46;;;;;;;8.43;4.30;;;;;;;3.59;85.65;99809.97;5088378;28;20255;-62
2021/12/07 00:04:16;;;;;;;9.40;4.70;;;;;;;3.49;86.41;99806.41;5084421;28;20266;-62
2021/12/07 00:06:44;;;;;;;7.57;4.43;;;;;;;3.50;86.92;99796.75;5091755;28;20233;-62
2021/12/07 00:09:14;;;;;;;9.93;4.83;;;;;;;3.50;86.98;99799.38;5090118;28;20252;-61
2021/12/07 00:11:43;;;;;;;7.73;3.83;;;;;;;3.49;87.49;99809.03;5090517;28;20286;-62
2021/12/07 00:14:13;;;;;;;9.83;4.63;;;;;;;3.48;87.54;99796.88;5090993;28;20211;-61
2021/12/07 00:16:43;;;;;;;10.33;4.50;;;;;;;3.37;87.96;99789.84;5089704;28;20709;-62
2021/12/07 00:19:11;;;;;;;8.90;4.47;;;;;;;3.47;87.83;99792.56;5094410;28;20207;-62
2021/12/07 00:21:43;;;;;;;9.93;5.00;;;;;;;3.40;88.13;99786.97;5089889;28;20258;-62
2021/12/07 00:24:13;;;;;;;8.27;4.50;;;;;;;3.53;87.21;99784.22;5077884;28;20240;-62
2021/12/07 00:26:42;;;;;;;9.13;4.80;;;;;;;3.37;88.32;99799.47;5083408;28;20304;-62
2021/12/07 00:29:12;;;;;;;9.40;5.10;;;;;;;3.51;87.96;99790.56;5081236;28;20269;-62
2021/12/07 00:31:49;;;;;;;8.37;5.00;;;;;;;3.53;91.98;99799.13;5086607;28;20205;-62
2021/12/07 00:34:26;;;;;;;10.33;5.00;;;;;;;3.40;89.91;99789.59;5090425;28;20233;-62
2021/12/07 00:36:55;;;;;;;11.27;4.80;;;;;;;3.28;90.20;99790.53;5083797;28;20209;-62
2021/12/07 00:39:25;;;;;;;8.63;4.90;;;;;;;3.39;89.74;99797.59;5089261;28;20315;-62
2021/12/07 00:41:54;;;;;;;10.73;5.57;;;;;;;3.50;89.29;99779.25;5092562;28;20291;-62
2021/12/07 00:44:24;;;;;;;7.43;4.23;;;;;;;3.53;88.75;99789.47;5091150;28;20216;-62
2021/12/07 00:46:53;;;;;;;8.57;4.50;;;;;;;3.26;90.08;99781.97;5095854;28;20310;-63
2021/12/07 00:49:21;;;;;;;8.43;4.70;;;;;;;3.09;91.99;99779.81;5088985;28;20204;-62
2021/12/07 00:51:49;;;;;;;9.07;4.10;;;;;;;3.33;91.22;99787.59;5091455;28;20207;-62
2021/12/07 00:54:19;;;;;;;7.30;3.90;;;;;;;3.29;91.25;99778.28;5094435;28;20265;-62
2021/12/07 00:56:47;;;;;;;6.90;3.80;;;;;;;3.37;90.64;99784.59;5087200;28;20252;-62
2021/12/07 00:59:15;;;;;;;8.67;4.30;;;;;;;3.24;91.31;99777.81;5085822;28;20755;-62
2021/12/07 01:01:44;;;;;;;7.73;4.03;;;;;;;3.29;91.56;99786.13;5090917;28;20673;-62
2021/12/07 01:04:12;;;;;;;9.97;4.67;;;;;;;3.51;90.46;99795.81;5094321;28;20694;-62
2021/12/07 01:06:59;;;;;;;11.33;4.40;;;;;;;3.56;90.17;99788.41;5089691;28;20859;-62
2021/12/07 01:09:34;;;;;;;9.50;4.50;;;;;;;3.60;90.16;99800.34;5085860;28;20652;-62
2021/12/07 01:25:59;;;;;;;5.60;3.23;;;;;;;3.51;90.32;99795.81;5084917;28;20299;-62
2021/12/07 01:28:32;;;;;;;6.43;3.03;;;;;;;3.43;90.79;99795.56;5089118;28;20246;-62
2021/12/07 01:31:10;;;;;;;5.33;3.03;;;;;;;3.43;90.70;99788.50;5087712;28;20669;-62
2021/12/07 01:34:08;;;;;;;9.13;3.43;;;;;;;3.48;91.50;99799.50;5087213;28;20638;-62
2021/12/07 01:37:02;;;;;;;6.60;2.80;;;;;;;3.72;89.90;99804.59;5091581;28;20239;-63
2021/12/07 01:45:20;;;;;;;3.23;2.10;;;;;;;3.83;89.06;99822.94;5086018;28;20227;-61
2021/12/07 01:47:57;;;;;;;3.87;2.03;;;;;;;4.02;87.90;99830.19;5084265;28;20273;-61
2021/12/07 01:57:48;;;;;;;4.33;2.20;;;;;;;4.11;87.66;99827.69;5075010;28;20209;-61
2021/12/07 02:01:39;;;;;;;4.20;2.10;;;;;;;4.36;86.39;99833.56;5091079;28;20832;-62
2021/12/07 02:04:07;;;;;;;4.27;1.87;;;;;;;4.55;85.50;99846.88;5082356;28;20246;-63
2021/12/07 02:06:35;;;;;;;3.33;1.67;;;;;;;4.51;85.61;99840.19;5088919;28;20279;-62
2021/12/07 02:09:05;;;;;;;3.97;1.87;;;;;;;4.60;84.95;99839.44;5084529;28;20287;-62
2021/12/07 02:11:33;;;;;;;2.87;1.67;;;;;;;4.70;84.72;99842.16;5084157;28;20255;-62
2021/12/07 02:14:15;;;;;;;5.30;1.70;;;;;;;4.75;84.07;99837.38;5088345;28;20214;-63
2021/12/07 02:16:45;;;;;;;4.23;1.80;;;;;;;4.77;84.00;99831.00;5090786;28;20655;-62
2021/12/07 02:19:13;;;;;;;2.80;1.73;;;;;;;4.72;83.79;99838.44;5088392;28;20688;-62
2021/12/07 02:21:43;;;;;;;3.87;1.73;;;;;;;4.56;85.22;99834.59;5080676;28;20258;-62
2021/12/07 02:24:11;;;;;;;3.20;1.50;;;;;;;4.67;84.52;99835.34;5084059;28;20288;-62
2021/12/07 02:26:39;;;;;;;3.00;1.60;;;;;;;4.81;83.84;99826.34;5088501;28;20247;-62
2021/12/07 02:29:07;;;;;;;3.37;1.73;;;;;;;4.66;83.54;99812.69;5085470;28;20854;-62
2021/12/07 02:31:36;;;;;;;2.90;1.60;;;;;;;4.73;83.72;99819.13;5090510;28;20300;-64
2021/12/07 02:34:05;;;;;;;2.90;1.60;;;;;;;4.80;83.31;99820.25;5087092;28;20754;-64
2021/12/07 02:36:33;;;;;;;3.80;1.33;;;;;;;4.57;84.66;99823.97;5092386;28;20251;-63
2021/12/07 02:39:02;;;;;;;2.80;1.30;;;;;;;4.75;83.38;99819.78;5078735;28;20324;-65
2021/12/07 02:41:30;;;;;;;2.80;1.47;;;;;;;4.77;83.06;99823.13;5073521;28;20712;-62
2021/12/07 02:43:58;;;;;;;3.10;1.60;;;;;;;4.86;82.71;99835.50;5071369;28;20290;-62
2021/12/07 02:46:26;;;;;;;2.53;1.40;;;;;;;4.49;84.63;99842.09;5065563;28;20218;-61
2021/12/07 02:48:54;;;;;;;3.40;1.60;;;;;;;4.77;83.83;99838.91;5069110;28;20220;-61
2021/12/07 02:51:22;;;;;;;3.63;1.53;;;;;;;4.78;83.60;99840.56;5067370;28;20565;-61
2021/12/07 02:53:50;;;;;;;2.97;1.40;;;;;;;4.95;82.54;99848.84;5066815;28;20585;-63
2021/12/07 02:56:19;;;;;;;2.33;1.33;;;;;;;4.81;82.91;99847.38;5074531;28;20209;-62
2021/12/07 02:58:47;;;;;;;5.27;1.57;;;;;;;4.79;82.58;99855.38;5066746;28;20301;-61
2021/12/07 03:01:21;;;;;;;3.03;1.43;;;;;;;4.78;82.73;99843.19;5067498;28;20285;-62
2021/12/07 03:03:58;;;;;;;3.63;1.60;;;;;;;4.84;82.39;99850.56;5071581;28;20296;-62
2021/12/07 03:06:35;;;;;;;2.50;1.27;;;;;;;4.80;82.68;99856.19;5073998;28;20220;-62
2021/12/07 03:26:02;;;;;;;1.30;0.60;;;;;;;5.14;81.06;99877.88;5072532;28;20302;-61
2021/12/07 03:28:32;;;;;;;3.03;0.70;;;;;;;5.02;81.56;99876.28;5066634;28;20247;-63
2021/12/07 03:31:01;;;;;;;1.23;0.60;;;;;;;5.05;80.93;99868.97;5069215;28;20218;-63
2021/12/07 03:33:28;;;;;;;2.07;0.60;;;;;;;5.24;80.17;99884.88;5067525;28;20207;-63
2021/12/07 03:35:57;;;;;;;1.20;0.50;;;;;;;5.09;80.59;99880.09;5075218;28;20731;-63
2021/12/07 03:38:26;;;;;;;1.57;0.70;;;;;;;5.19;80.82;99888.88;5072693;28;20242;-62
2021/12/07 03:40:54;;;;;;;1.77;0.60;;;;;;;5.08;81.03;99881.03;5082374;28;20224;-63
2021/12/07 03:43:22;;;;;;;1.97;0.70;;;;;;;5.08;81.08;99887.13;5081252;28;20212;-63
2021/12/07 03:45:52;;;;;;;2.07;0.70;;;;;;;4.99;81.84;99906.28;5085623;28;20678;-63
2021/12/07 03:48:20;;;;;;;3.13;0.70;;;;;;;5.03;81.29;99898.97;5088053;28;20316;-62
2021/12/07 03:50:48;;;;;;;1.97;1.20;;;;;;;5.19;80.88;99904.63;5086567;28;20216;-62
2021/12/07 03:53:15;;;;;;;1.53;0.70;;;;;;;4.89;82.28;99910.63;5077839;28;20702;-62
2021/12/07 03:55:44;;;;;;;3.70;1.27;;;;;;;4.69;83.13;99932.41;5086710;28;20226;-62
2021/12/07 03:58:12;;;;;;;5.80;0.83;;;;;;;5.08;81.94;99930.97;5085506;28;20294;-64
2021/12/07 04:00:43;;;;;;;2.40;0.80;;;;;;;5.05;81.38;99944.34;5086094;28;20321;-63
2021/12/07 04:03:14;;;;;;;1.87;0.90;;;;;;;5.12;81.41;99940.25;5093827;28;20223;-63
2021/12/07 04:05:48;;;;;;;2.50;0.80;;;;;;;5.09;81.55;99943.16;5091689;28;20213;-63
2021/12/07 04:08:19;;;;;;;1.83;0.53;;;;;;;4.95;81.43;99953.94;5085171;28;20207;-63
2021/12/07 04:10:47;;;;;;;2.00;0.70;;;;;;;5.18;80.77;99958.16;5091215;28;20668;-63
2021/12/07 04:13:15;;;;;;;2.20;0.80;;;;;;;5.25;80.19;99962.78;5094293;28;20881;-62
2021/12/07 04:15:43;;;;;;;3.63;0.70;;;;;;;5.03;80.78;99962.03;5094259;28;20242;-62
2021/12/07 04:18:12;;;;;;;1.83;0.70;;;;;;;5.15;80.58;99961.88;5091788;28;20623;-62
2021/12/07 04:20:41;;;;;;;1.53;0.77;;;;;;;5.16;80.55;99967.97;5090054;28;20297;-62
2021/12/07 04:23:08;;;;;;;3.40;0.53;;;;;;;5.18;80.77;99976.56;5093619;28;20321;-63
2021/12/07 04:25:36;;;;;;;2.43;0.80;;;;;;;5.11;80.98;99975.38;5088077;28;20221;-62
2021/12/07 04:28:05;;;;;;;2.23;0.70;;;;;;;5.23;80.31;99977.84;5092446;28;20245;-62
2021/12/07 04:30:38;;;;;;;2.27;0.67;;;;;;;5.19;80.43;99983.50;5089707;28;20647;-62
2021/12/07 04:33:09;;;;;;;1.43;0.70;;;;;;;5.26;80.47;99989.91;5089970;28;20210;-62
2021/12/07 04:35:40;;;;;;;3.47;0.87;;;;;;;5.48;79.15;99988.97;5088096;28;20214;-62
2021/12/07 04:38:08;;;;;;;4.20;0.70;;;;;;;5.10;80.28;99984.25;5090738;28;20242;-60
2021/12/07 04:40:37;;;;;;;2.03;0.77;;;;;;;5.40;79.70;99988.75;5100049;28;20309;-62
2021/12/07 04:43:06;;;;;;;2.23;0.70;;;;;;;5.25;79.63;99989.06;5090686;28;20318;-63
2021/12/07 04:45:48;;;;;;;2.20;0.93;;;;;;;5.21;79.99;99986.81;5088401;28;20207;-63
2021/12/07 04:49:07;;;;;;;1.90;0.60;;;;;;;5.29;79.82;99985.22;5087451;28;20222;-63
2021/12/07 04:59:54;;;;;;;5.53;0.80;;;;;;;5.47;79.12;100003.06;5091485;28;20206;-62
2021/12/07 05:02:24;;;;;;;3.30;1.07;;;;;;;5.21;79.84;99998.16;5089457;28;20231;-62
2021/12/07 05:04:53;;;;;;;3.50;1.10;;;;;;;5.37;79.34;99997.72;5091799;28;20531;-62
2021/12/07 05:07:27;;;;;;;3.47;0.90;;;;;;;5.29;79.36;100000.16;5095270;28;20249;-62
2021/12/07 05:13:20;;;;;;;3.83;1.23;;;;;;;5.39;79.09;100013.38;5090734;28;20749;-62
2021/12/07 05:18:41;;;;;;;5.23;1.27;;;;;;;5.45;78.75;100026.06;5087066;28;20524;-61
2021/12/07 05:24:01;;;;;;;3.37;1.13;;;;;;;5.37;78.71;100034.53;5077190;28;20830;-62
2021/12/07 05:37:48;;;;;;;3.97;1.40;;;;;;;5.52;77.67;100056.97;5067555;28;20210;-61
2021/12/07 05:40:20;;;;;;;4.67;1.27;;;;;;;5.59;77.84;100060.75;5090039;28;20682;-61
2021/12/07 05:42:48;;;;;;;7.60;1.73;;;;;;;5.66;77.30;100066.34;5090332;28;20828;-61
2021/12/07 05:45:18;;;;;;;3.60;0.93;;;;;;;5.56;77.62;100066.25;5084800;28;20212;-62
2021/12/07 05:47:46;;;;;;;3.70;1.23;;;;;;;5.37;78.12;100060.84;5091242;28;20234;-61
2021/12/07 05:50:17;;;;;;;3.37;1.10;;;;;;;5.64;77.30;100063.00;5085021;28;20298;-62
2021/12/07 05:52:45;;;;;;;4.27;1.40;;;;;;;5.70;76.79;100072.19;5090285;28;20603;-62
2021/12/07 05:55:13;;;;;;;4.40;1.70;;;;;;;5.68;76.21;100070.53;5090161;28;20298;-61
2021/12/07 05:57:43;;;;;;;2.90;1.07;;;;;;;5.59;77.18;100073.91;5089980;28;20214;-62
2021/12/07 06:00:14;;;;;;;4.33;1.43;;;;;;;5.45;77.12;100078.63;5091237;28;20632;-62
2021/12/07 06:02:42;;;;;;;7.03;1.27;;;;;;;5.70;76.41;100085.34;5089031;28;20243;-61
2021/12/07 06:05:10;;;;;;;4.73;1.13;;;;;;;5.73;76.20;100092.97;5084835;28;20289;-60
2021/12/07 06:07:38;;;;;;;5.03;1.10;;;;;;;5.65;76.04;100102.34;5090063;28;20295;-60
2021/12/07 06:10:07;;;;;;;6.50;1.10;;;;;;;5.75;76.00;100106.84;5090781;28;20284;-60
2021/12/07 06:12:35;;;;;;;4.40;1.20;;;;;;;5.54;76.56;100112.09;5098743;28;20238;-60
2021/12/07 06:15:05;;;;;;;4.20;1.30;;;;;;;5.68;75.96;100109.16;5089365;28;20253;-62
2021/12/07 06:17:32;;;;;;;5.20;1.20;;;;;;;5.79;75.61;100113.53;5094180;28;20206;-62
2021/12/07 06:20:00;;;;;;;4.43;1.27;;;;;;;5.74;75.40;100110.44;5088639;28;20294;-61
2021/12/07 06:22:28;;;;;;;4.33;1.40;;;;;;;5.86;75.11;100122.59;5086975;28;20313;-60
2021/12/07 06:24:56;;;;;;;6.90;1.50;;;;;;;5.78;74.95;100119.75;5089746;28;20694;-62
2021/12/07 06:27:24;;;;;;;7.10;1.43;;;;;;;5.96;74.59;100126.16;5083394;28;20239;-60
2021/12/07 06:29:52;;;;;;;3.27;1.20;;;;;;;5.84;74.25;100132.41;5090834;28;20290;-60
2021/12/07 06:32:21;;;;;;;9.27;1.40;;;;;;;5.72;75.17;100128.97;5089317;28;20294;-59
2021/12/07 06:34:49;;;;;;;6.77;1.90;;;;;;;5.92;74.72;100145.78;5096727;28;20662;-60
2021/12/07 06:37:17;;;;;;;6.33;1.70;;;;;;;5.97;74.37;100141.00;5080594;28;20239;-61
2021/12/07 06:39:45;;;;;;;6.73;1.90;;;;;;;5.82;74.56;100142.22;5082111;28;20235;-61
2021/12/07 06:42:15;;;;;;;3.03;1.00;;;;;;;5.76;75.26;100143.56;5081880;28;20294;-61
2021/12/07 06:44:43;;;;;;;5.27;1.37;;;;;;;5.88;74.39;100152.28;5087525;28;20244;-61
2021/12/07 06:47:11;;;;;;;5.30;1.17;;;;;;;5.86;74.19;100169.97;5086961;28;20581;-61
2021/12/07 06:49:40;;;;;;;6.27;1.10;;;;;;;5.96;74.18;100173.53;5086272;28;20222;-60
2021/12/07 06:52:08;;;;;;;5.17;1.00;;;;;;;5.86;74.15;100181.31;5081957;28;20231;-61
2021/12/07 06:54:36;;;;;;;4.23;1.30;;;;;;;5.98;73.96;100188.22;5089812;28;20309;-60
2021/12/07 06:57:05;;;;;;;7.53;1.40;;;;;;;5.88;74.06;100186.50;5081866;28;20221;-60
2021/12/07 06:59:33;;;;;;;4.33;1.03;;;;;;;5.78;74.50;100190.78;5084251;28;20343;-59
2021/12/07 07:02:02;;;;;;;6.77;1.20;;;;;;;5.81;74.62;100193.16;5087464;28;20316;-58
2021/12/07 07:04:30;;;;;;;5.40;1.53;;;;;;;5.70;75.01;100203.72;5087839;28;20223;-61
2021/12/07 07:06:59;;;;;;;6.27;1.20;;;;;;;5.63;75.51;100204.22;5080667;28;20294;-61
2021/12/07 07:09:27;;;;;;;5.10;0.90;;;;;;;5.82;74.78;100208.00;5079815;28;20208;-61
2021/12/07 07:11:58;;;;;;;6.30;1.30;;;;;;;5.81;74.71;100215.03;5085954;28;20632;-60
2021/12/07 07:14:26;;;;;;;6.93;1.10;;;;;;;5.61;74.99;100207.94;5087319;28;20206;-60
2021/12/07 07:16:53;;;;;;;2.63;1.00;;;;;;;5.78;74.64;100217.94;5088020;28;20229;-60
2021/12/07 07:19:24;;;;;;;4.27;1.10;;;;;;;5.77;74.46;100220.69;5088689;28;20209;-61
2021/12/07 07:21:51;;;;;;;7.83;1.27;;;;;;;5.78;74.52;100217.94;5079072;28;20217;-61
2021/12/07 07:24:21;;;;;;;5.63;1.20;;;;;;;5.95;73.99;100222.72;5094011;28;20232;-61
2021/12/07 07:26:48;;;;;;;10.07;1.50;;;;;;;5.91;74.02;100223.06;5069602;28;20302;-61
2021/12/07 07:29:16;;;;;;;12.97;1.80;;;;;;;5.79;73.91;100224.03;5077660;28;20237;-59
2021/12/07 07:31:44;;;;;;;4.57;1.37;;;;;;;5.98;73.79;100227.69;5084863;28;20221;-61
2021/12/07 07:34:12;;;;;;;5.00;1.63;;;;;;;6.07;73.59;100228.75;5086247;28;20703;-61
2021/12/07 07:36:40;;;;;;;6.70;2.23;;;;;;;5.81;74.43;100227.38;5090005;28;20297;-61
2021/12/07 07:39:07;;;;;;;5.53;2.00;;;;;;;6.04;73.91;100231.66;5085456;28;20317;-61
2021/12/07 07:41:37;;;;;;;8.37;2.00;;;;;;;6.03;73.77;100227.34;5101870;28;20870;-60
2021/12/07 07:44:06;;;;;;;11.60;1.90;;;;;;;5.87;74.78;100232.16;5099769;28;20249;-61
2021/12/07 07:46:33;;;;;;;5.27;1.63;;;;;;;5.83;74.51;100243.88;5093329;28;20293;-61
2021/12/07 07:49:02;;;;;;;10.90;2.17;;;;;;;5.79;74.85;100238.03;5100785;28;20206;-61
2021/12/07 07:51:30;;;;;;;7.23;1.97;;;;;;;5.84;74.87;100246.38;5091170;28;20206;-61
2021/12/07 07:53:59;;;;;;;7.87;1.97;;;;;;;6.00;74.06;100248.63;5091884;28;20231;-61
2021/12/07 07:56:27;;;;;;;8.43;2.57;;;;;;;5.98;74.71;100248.75;5093217;28;20337;-60
2021/12/07 07:58:58;;;;;;;5.47;1.93;;;;;;;6.21;73.55;100240.81;5092130;28;20636;-59
2021/12/07 08:01:29;;;;;;;5.10;1.87;;;;;;;6.23;73.25;100247.63;5088415;28;20248;-62
2021/12/07 08:04:00;;;;;;;5.40;2.37;;;;;;;6.03;74.17;100245.78;5096973;28;20222;-61
2021/12/07 08:06:28;;;;;;;12.60;2.27;;;;;;;6.08;73.71;100250.66;5093452;28;20264;-62
2021/12/07 08:08:56;;;;;;;9.90;2.27;;;;;;;6.04;73.70;100264.06;5091623;28;20210;-62
2021/12/07 08:11:24;;;;;;;6.73;2.30;;;;;;;6.08;74.02;100272.53;5099158;28;20217;-61
2021/12/07 08:13:54;;;;;;;9.80;2.43;;;;;;;6.09;73.88;100268.97;5091125;28;20618;-60
2021/12/07 08:16:23;;;;;;;6.53;2.40;;;;;;;6.18;73.82;100276.09;5090478;28;20718;-61
2021/12/07 08:18:53;;;;;;;11.30;2.20;;;;;;;6.34;72.98;100273.88;5083345;28;20579;-61
2021/12/07 08:21:22;;;;;;;9.00;1.77;;;;;;;6.38;72.69;100274.50;5091816;28;20314;-61
2021/12/07 08:23:50;;;;;;;6.17;2.40;;;;;;;6.34;72.71;100279.16;5094125;28;20385;-60
2021/12/07 08:26:20;;;;;;;7.67;2.00;;;;;;;6.22;72.59;100277.53;5092213;28;20234;-60
2021/12/07 08:28:49;;;;;;;8.33;1.80;;;;;;;6.30;72.52;100269.84;5081651;28;20215;-60
2021/12/07 08:31:17;;;;;;;9.37;2.40;;;;;;;6.21;72.94;100278.50;5089079;28;20272;-60
2021/12/07 08:33:47;;;;;;;6.10;1.70;;;;;;;6.21;73.17;100267.97;5092334;28;20229;-60
2021/12/07 08:36:15;;;;;;;7.47;1.57;;;;;;;6.04;73.58;100256.19;5093199;28;20285;-61
2021/12/07 08:38:43;;;;;;;8.67;2.50;;;;;;;6.14;73.80;100265.97;5080677;28;20235;-61
2021/12/07 08:41:13;;;;;;;10.63;2.27;;;;;;;6.14;73.55;100272.06;5089929;28;20676;-61
2021/12/07 08:43:41;;;;;;;7.10;2.37;;;;;;;6.17;73.55;100277.06;5089586;28;20553;-60
2021/12/07 08:46:11;;;;;;;11.43;2.07;;;;;;;6.25;73.44;100274.63;5088368;28;20636;-62
2021/12/07 08:48:39;;;;;;;6.37;1.80;;;;;;;6.42;72.78;100274.09;5093475;28;20729;-61
2021/12/07 08:51:12;;;;;;;10.67;1.70;;;;;;;6.40;72.86;100273.41;5090136;28;20302;-61
2021/12/07 08:53:47;;;;;;;7.13;2.43;;;;;;;6.33;72.91;100266.94;5083862;28;20228;-59
2021/12/07 09:01:47;;;;;;;6.87;1.83;;;;;;;6.27;72.82;100278.00;5088697;28;20250;-61
2021/12/07 09:04:17;;;;;;;9.20;1.47;;;;;;;6.55;72.02;100291.53;5089757;28;20650;-61
2021/12/07 09:06:47;;;;;;;5.30;1.40;;;;;;;6.54;71.90;100281.97;5089353;28;20672;-61
2021/12/07 09:09:16;;;;;;;6.37;2.03;;;;;;;6.69;71.69;100292.06;5086232;28;20208;-61
2021/12/07 09:11:44;;;;;;;5.87;1.63;;;;;;;6.84;71.01;100303.13;5083742;28;20609;-61
2021/12/07 09:14:14;;;;;;;7.83;1.37;;;;;;;6.85;70.54;100304.81;5088475;28;20295;-61
2021/12/07 09:16:43;;;;;;;3.53;1.43;;;;;;;7.33;69.27;100293.69;5089061;28;20281;-62
2021/12/07 09:19:12;;;;;;;4.87;1.87;;;;;;;7.38;69.11;100310.81;5081494;28;20221;-61
2021/12/07 09:21:41;;;;;;;8.00;1.93;;;;;;;7.54;68.03;100308.53;5082300;28;20213;-62
2021/12/07 09:24:10;;;;;;;10.13;1.97;;;;;;;7.59;67.35;100302.84;5085461;28;20267;-60
2021/12/07 09:26:38;;;;;;;9.73;2.03;;;;;;;7.48;67.61;100318.75;5092898;28;20313;-61
2021/12/07 09:29:07;;;;;;;4.90;1.60;;;;;;;7.46;67.95;100316.28;5095126;28;20200;-62
2021/12/07 09:31:36;;;;;;;7.17;1.67;;;;;;;7.46;68.02;100318.06;5085310;28;20553;-61
2021/12/07 09:34:06;;;;;;;7.17;2.30;;;;;;;7.20;68.95;100319.47;5087250;28;20323;-61
2021/12/07 09:36:34;;;;;;;7.63;1.73;;;;;;;7.42;68.83;100327.19;5089273;28;20205;-61
2021/12/07 09:39:05;;;;;;;8.27;2.00;;;;;;;7.17;67.89;100331.09;5090295;28;20268;-61
2021/12/07 09:41:34;;;;;;;10.47;2.13;;;;;;;7.09;68.78;100337.03;5082241;28;20292;-61
2021/12/07 09:44:03;;;;;;;7.23;1.43;;;;;;;7.17;69.08;100331.94;5088736;28;20210;-60
2021/12/07 09:46:30;;;;;;;6.23;2.17;;;;;;;7.14;69.14;100337.44;5091302;28;20628;-61
2021/12/07 09:48:58;;;;;;;11.03;2.13;;;;;;;7.15;69.47;100344.41;5097331;28;20240;-61
2021/12/07 09:51:28;;;;;;;5.23;1.70;;;;;;;7.13;69.34;100340.22;5090601;28;20248;-59
2021/12/07 09:53:58;;;;;;;8.07;2.13;;;;;;;6.97;69.12;100340.66;5088289;28;20217;-62
2021/12/07 09:56:28;;;;;;;9.57;2.73;;;;;;;7.07;69.33;100336.31;5087023;28;20680;-59
2021/12/07 09:59:00;;;;;;;7.67;2.00;;;;;;;7.11;68.43;100329.81;5082744;28;20217;-60
2021/12/07 10:01:30;;;;;;;8.53;2.00;;;;;;;7.24;68.43;100326.13;5089957;28;20841;-60
2021/12/07 10:03:59;;;;;;;6.13;1.57;;;;;;;7.27;68.72;100321.44;5084295;28;20208;-61
2021/12/07 10:06:27;;;;;;;6.30;1.70;;;;;;;7.24;68.58;100326.13;5091846;28;20219;-61
2021/12/07 10:08:55;;;;;;;9.53;1.53;;;;;;;7.16;69.15;100318.88;5088578;28;20304;-61
2021/12/07 10:11:27;;;;;;;8.37;1.63;;;;;;;7.23;68.08;100319.19;5089285;28;20650;-60
2021/12/07 10:13:55;;;;;;;9.43;1.60;;;;;;;7.32;67.45;100308.69;5080964;28;20267;-60
2021/12/07 10:16:25;;;;;;;6.33;1.40;;;;;;;7.27;67.07;100299.50;5082941;28;20259;-61
2021/12/07 10:18:57;;;;;;;3.67;1.30;;;;;;;7.27;65.70;100296.88;5085730;28;20217;-59
2021/12/07 10:21:28;;;;;;;6.53;1.43;;;;;;;7.44;64.39;100302.38;5089994;28;20296;-60
2021/12/07 10:24:00;;;;;;;6.53;1.27;;;;;;;7.59;64.68;100300.19;5095383;28;20252;-61
2021/12/07 10:26:30;;;;;;;5.90;1.40;;;;;;;7.90;63.46;100296.56;5088999;28;20308;-62
2021/12/07 10:29:00;;;;;;;10.87;2.07;;;;;;;8.37;62.25;100294.16;5085870;28;20264;-61
2021/12/07 10:31:34;;;;;;;11.17;1.77;;;;;;;12.06;52.86;100272.78;5089435;28;20207;-61
2021/12/07 10:34:05;;;;;;;4.50;1.30;;;;;;;14.05;46.02;100277.38;5089707;28;20212;-61
2021/12/07 10:36:36;;;;;;;7.03;2.00;;;;;;;16.66;39.06;100269.09;5080542;28;20322;-61
2021/12/07 10:39:10;;;;;;;3.70;1.30;;;;;;;19.00;36.17;100251.75;5087326;28;20782;-61
2021/12/07 10:41:42;;;;;;;6.60;1.40;;;;;;;18.56;34.47;100246.16;5087155;28;20203;-61
2021/12/07 10:44:12;;;;;;;5.93;1.40;;;;;;;17.54;35.20;100256.94;5088384;28;20215;-61
2021/12/07 10:46:52;;;;;;;6.03;1.55;;;;;;;16.99;37.23;100257.81;5090166;28;20226;-61
2021/12/07 10:49:32;;;;;;;5.22;1.52;;;;;;;14.57;41.51;100264.22;5085892;28;20210;-61
2021/12/07 10:52:17;;;;;;;3.58;1.30;;;;;;;13.85;43.50;100265.47;5084265;28;20289;-61
2021/12/07 10:54:53;;;;;;;4.55;1.65;;;;;;;14.34;43.75;100255.34;5086190;28;20663;-60
2021/12/07 10:57:23;;;;;;;5.45;1.50;;;;;;;17.20;37.46;100244.38;5089884;28;20264;-61
2021/12/07 10:59:55;;;;;;;7.40;1.95;;;;;;;16.66;37.84;100252.19;5085172;28;20233;-61
2021/12/07 11:02:27;;;;;;;5.40;1.38;;;;;;;14.41;41.33;100253.66;5088869;28;20211;-61
2021/12/07 11:04:55;;;;;;;5.05;1.20;;;;;;;13.19;42.37;100259.53;5093093;28;20256;-61
2021/12/07 11:07:25;;;;;;;7.05;1.58;;;;;;;13.35;42.02;100256.03;5081220;28;20219;-60
2021/12/07 11:10:00;;;;;;;4.85;1.45;;;;;;;13.50;42.63;100242.81;5087915;28;20237;-62
2021/12/07 11:12:35;;;;;;;4.88;1.52;;;;;;;13.82;42.78;100249.81;5087364;28;20604;-61
2021/12/07 11:15:11;;;;;;;8.43;1.85;;;;;;;15.56;39.33;100254.25;5086633;28;20202;-62
2021/12/07 11:17:42;;;;;;;5.93;1.50;;;;;;;17.57;36.31;100257.38;5092759;28;20624;-61
2021/12/07 11:20:13;;;;;;;4.73;1.47;;;;;;;17.67;35.65;100265.09;5095294;28;20210;-62
2021/12/07 11:22:44;;;;;;;6.00;1.30;;;;;;;14.53;39.59;100265.56;5090925;28;20230;-63
2021/12/07 11:25:31;;;;;;;5.50;1.40;;;;;;;12.85;43.28;100274.84;5086923;28;20240;-60
2021/12/07 11:30:45;;;;;;;7.03;1.93;;;;;;;11.41;47.41;100261.91;5093618;28;20291;-61
2021/12/07 11:33:23;;;;;;;6.33;1.53;;;;;;;11.03;49.05;100265.00;5097676;28;20203;-61
2021/12/07 11:35:51;;;;;;;9.43;2.03;;;;;;;10.57;49.51;100264.31;5092674;28;20287;-61
2021/12/07 11:38:29;;;;;;;9.70;1.83;;;;;;;10.13;51.04;100247.47;5092630;28;20235;-62
2021/12/07 11:41:16;;;;;;;6.90;1.77;;;;;;;10.04;51.81;100249.22;5084483;28;20802;-62
2021/12/07 11:43:59;;;;;;;6.90;2.03;;;;;;;9.91;53.28;100235.50;5092247;28;20301;-62
2021/12/07 11:46:29;;;;;;;10.90;1.97;;;;;;;9.89;53.18;100240.13;5091092;28;20802;-62
2021/12/07 11:49:08;;;;;;;5.47;2.00;;;;;;;9.72;53.23;100238.28;5089601;28;20361;-63
2021/12/07 11:51:36;;;;;;;8.77;2.07;;;;;;;9.72;54.09;100236.47;5089530;28;20245;-62
2021/12/07 11:54:08;;;;;;;8.97;1.83;;;;;;;9.62;53.72;100227.72;5091337;28;20207;-62
2021/12/07 11:56:36;;;;;;;8.23;1.73;;;;;;;9.46;53.64;100222.25;5098585;28;20234;-62
2021/12/07 11:59:06;;;;;;;6.90;1.87;;;;;;;9.57;55.31;100219.41;5095009;28;20210;-60
2021/12/07 12:01:43;;;;;;;6.90;1.90;;;;;;;9.40;54.94;100206.97;5091577;28;20614;-62
2021/12/07 12:04:14;;;;;;;5.43;2.07;;;;;;;9.55;56.71;100194.91;5092165;28;20203;-62
2021/12/07 12:06:43;;;;;;;7.03;1.90;;;;;;;9.31;55.89;100198.09;5086364;28;20292;-62
2021/12/07 12:09:11;;;;;;;8.60;2.37;;;;;;;9.41;56.89;100192.75;5087400;28;20276;-61
2021/12/07 12:11:46;;;;;;;11.50;2.57;;;;;;;9.19;56.43;100190.47;5090447;28;20297;-62
2021/12/07 12:14:31;;;;;;;7.23;2.03;;;;;;;9.01;57.78;100185.13;5091249;28;20601;-61
2021/12/07 12:17:07;;;;;;;7.17;1.67;;;;;;;9.05;57.69;100181.22;5089612;28;20301;-61
2021/12/07 12:19:48;;;;;;;8.33;1.80;;;;;;;8.98;58.22;100175.66;5092171;28;20239;-61
2021/12/07 12:22:22;;;;;;;9.60;2.03;;;;;;;8.90;58.06;100178.19;5088863;28;20224;-63
2021/12/07 12:24:52;;;;;;;11.10;2.13;;;;;;;9.01;58.67;100169.25;5092101;28;20262;-62
2021/12/07 12:27:24;;;;;;;6.80;1.73;;;;;;;8.99;57.11;100168.56;5092135;28;20234;-62
2021/12/07 12:29:54;;;;;;;7.80;1.70;;;;;;;9.16;57.88;100161.66;5084644;28;20211;-63
2021/12/07 12:32:29;;;;;;;4.33;1.50;;;;;;;9.21;59.08;100159.44;5083133;28;20242;-62
2021/12/07 12:34:59;;;;;;;5.93;1.87;;;;;;;9.24;57.34;100162.59;5091653;28;20653;-60
2021/12/07 12:37:29;;;;;;;6.03;1.60;;;;;;;9.22;56.57;100153.16;5090505;28;20252;-59
2021/12/07 12:39:59;;;;;;;6.23;1.50;;;;;;;9.09;55.65;100164.06;5091077;28;20625;-61
2021/12/07 12:42:35;;;;;;;5.27;1.33;;;;;;;9.17;57.50;100148.28;5089860;28;20221;-61
2021/12/07 12:45:18;;;;;;;7.23;1.33;;;;;;;9.15;54.78;100149.44;5089881;28;20215;-61
2021/12/07 12:47:46;;;;;;;6.00;2.00;;;;;;;9.12;55.99;100150.56;5091892;28;20747;-62
2021/12/07 12:50:21;;;;;;;4.63;1.30;;;;;;;8.97;55.26;100142.25;5091151;28;20302;-60
2021/12/07 12:52:51;;;;;;;10.17;2.23;;;;;;;8.99;55.50;100144.75;5084561;28;20219;-62
2021/12/07 12:55:42;;;;;;;8.13;1.67;;;;;;;8.83;56.96;100145.38;5090387;28;20245;-63
2021/12/07 12:58:14;;;;;;;9.30;1.27;;;;;;;8.87;55.96;100135.34;5089039;28;20273;-61
2021/12/07 13:01:17;;;;;;;7.50;1.63;;;;;;;8.58;56.40;100138.94;5089647;28;20644;-62
2021/12/07 13:03:53;;;;;;;7.37;1.47;;;;;;;8.68;55.77;100126.50;5087633;28;20243;-61
2021/12/07 13:06:42;;;;;;;7.30;1.43;;;;;;;8.65;55.93;100128.59;5089776;28;20724;-61
2021/12/07 13:09:34;;;;;;;6.03;1.17;;;;;;;8.83;57.47;100120.75;5087937;28;20217;-60
2021/12/07 13:12:05;;;;;;;4.37;1.27;;;;;;;8.81;58.56;100109.47;5082094;28;20203;-62
2021/12/07 13:14:37;;;;;;;7.97;2.23;;;;;;;8.63;57.04;100114.69;5091818;28;20210;-62